Pagina principale
METAR-TAF:

METAR-TAF

Aeroporti :

Capo Bellavista

Tortolì, Italia

latitudine: 39-56N, longitudine: 009-43E, altezza: 138 m

Osservazione

Il bollettino è stato emesso 21 minuti fa, alle 15:55 UTC
Vento 2 kt da sud/sud-est
Temperature 28°C
Umidità 62%
Pressione 1015 hPa
Visibilità 10 km o più
Nubi sparse ad un'altezza di 4000 ft, Cumulonembo.

METAR: LIEB 181555Z 15002KT 9999 SCT040CB 28/20 Q1015 RMK BKN SCT080 QUK 2 QUL 0 VIS MAR 25 KM MON LIB VIS MIN 9999

Ora: 18:16 (16:16 UTC)


TAF: mancante

Osservazioni e previsioni meteorologiche di più di 4000 aeroporti (messaggi METAR e TAF).

Le stazioni disponibili sono rappresentate dai dischi gialli e rossi sulla carta.

Puntare il mouse per vedere il nome della stazione.

Clicca sopra per visualizzare le osservazioni e previsioni meteorologiche.

Per cambiare la mappa : fare clic sui pulsanti verdi con una croce nera per ingrandire, il pulsante verde con un trattino per diminuire, o sulla freccia verde per le mappe adiacenti.


METAR-TAF: